sensor_id;sensor_type;location;lat;lon;timestamp;P1;durP1;ratioP1;P2;durP2;ratioP2
14760;SDS011;7472;45.396;5.272;2023-03-23T00:01:00;4.00;;;2.20;;
14760;SDS011;7472;45.396;5.272;2023-03-23T00:03:28;2.45;;;1.90;;
14760;SDS011;7472;45.396;5.272;2023-03-23T00:05:56;3.58;;;2.10;;
14760;SDS011;7472;45.396;5.272;2023-03-23T00:08:29;2.15;;;1.95;;
14760;SDS011;7472;45.396;5.272;2023-03-23T00:10:57;3.53;;;2.40;;
14760;SDS011;7472;45.396;5.272;2023-03-23T00:13:26;4.32;;;2.03;;
14760;SDS011;7472;45.396;5.272;2023-03-23T00:15:56;2.72;;;1.90;;
14760;SDS011;7472;45.396;5.272;2023-03-23T00:18:23;3.63;;;2.10;;
14760;SDS011;7472;45.396;5.272;2023-03-23T00:20:51;3.22;;;2.00;;
14760;SDS011;7472;45.396;5.272;2023-03-23T00:23:20;2.30;;;1.90;;
14760;SDS011;7472;45.396;5.272;2023-03-23T00:25:48;4.40;;;1.83;;
14760;SDS011;7472;45.396;5.272;2023-03-23T00:28:18;2.90;;;1.95;;
14760;SDS011;7472;45.396;5.272;2023-03-23T00:30:53;3.45;;;2.17;;
14760;SDS011;7472;45.396;5.272;2023-03-23T00:33:23;2.53;;;2.20;;
14760;SDS011;7472;45.396;5.272;2023-03-23T00:35:51;2.55;;;2.22;;
14760;SDS011;7472;45.396;5.272;2023-03-23T00:38:19;4.20;;;2.42;;
14760;SDS011;7472;45.396;5.272;2023-03-23T00:40:47;3.83;;;2.20;;
14760;SDS011;7472;45.396;5.272;2023-03-23T00:43:14;2.40;;;1.75;;
14760;SDS011;7472;45.396;5.272;2023-03-23T00:45:42;2.20;;;1.83;;
14760;SDS011;7472;45.396;5.272;2023-03-23T00:48:14;3.33;;;2.22;;
14760;SDS011;7472;45.396;5.272;2023-03-23T00:50:43;2.45;;;2.00;;
14760;SDS011;7472;45.396;5.272;2023-03-23T00:53:11;4.22;;;1.80;;
14760;SDS011;7472;45.396;5.272;2023-03-23T00:55:39;3.78;;;1.75;;
14760;SDS011;7472;45.396;5.272;2023-03-23T00:58:07;2.35;;;1.80;;
14760;SDS011;7472;45.396;5.272;2023-03-23T01:00:35;1.83;;;1.60;;
14760;SDS011;7472;45.396;5.272;2023-03-23T01:03:02;2.58;;;2.08;;
14760;SDS011;7472;45.396;5.272;2023-03-23T01:05:32;3.17;;;2.15;;
14760;SDS011;7472;45.396;5.272;2023-03-23T01:08:02;2.03;;;1.50;;
14760;SDS011;7472;45.396;5.272;2023-03-23T01:10:30;2.05;;;1.85;;
14760;SDS011;7472;45.396;5.272;2023-03-23T01:12:58;1.75;;;1.65;;
14760;SDS011;7472;45.396;5.272;2023-03-23T01:15:26;2.67;;;2.03;;
14760;SDS011;7472;45.396;5.272;2023-03-23T01:17:54;2.40;;;1.92;;
14760;SDS011;7472;45.396;5.272;2023-03-23T01:20:21;4.97;;;2.05;;
14760;SDS011;7472;45.396;5.272;2023-03-23T01:22:49;1.77;;;1.60;;
14760;SDS011;7472;45.396;5.272;2023-03-23T01:25:19;1.63;;;1.52;;
14760;SDS011;7472;45.396;5.272;2023-03-23T01:27:46;2.05;;;1.65;;
14760;SDS011;7472;45.396;5.272;2023-03-23T01:30:14;3.30;;;2.33;;
14760;SDS011;7472;45.396;5.272;2023-03-23T01:32:41;4.03;;;2.92;;
14760;SDS011;7472;45.396;5.272;2023-03-23T01:35:09;2.90;;;2.00;;
14760;SDS011;7472;45.396;5.272;2023-03-23T01:37:36;3.42;;;2.30;;
14760;SDS011;7472;45.396;5.272;2023-03-23T01:40:04;3.88;;;2.80;;
14760;SDS011;7472;45.396;5.272;2023-03-23T01:42:33;4.00;;;2.53;;
14760;SDS011;7472;45.396;5.272;2023-03-23T01:47:57;2.28;;;1.83;;
14760;SDS011;7472;45.396;5.272;2023-03-23T01:50:27;2.85;;;2.03;;
14760;SDS011;7472;45.396;5.272;2023-03-23T01:52:55;2.75;;;2.30;;
14760;SDS011;7472;45.396;5.272;2023-03-23T01:55:24;3.00;;;2.00;;
14760;SDS011;7472;45.396;5.272;2023-03-23T01:57:53;2.38;;;2.17;;
14760;SDS011;7472;45.396;5.272;2023-03-23T02:00:21;3.00;;;2.15;;
14760;SDS011;7472;45.396;5.272;2023-03-23T02:02:49;6.97;;;2.47;;
14760;SDS011;7472;45.396;5.272;2023-03-23T02:05:20;3.55;;;2.40;;
14760;SDS011;7472;45.396;5.272;2023-03-23T02:07:49;6.30;;;3.00;;
14760;SDS011;7472;45.396;5.272;2023-03-23T02:10:17;8.35;;;2.70;;
14760;SDS011;7472;45.396;5.272;2023-03-23T02:12:44;3.55;;;2.50;;
14760;SDS011;7472;45.396;5.272;2023-03-23T02:15:13;3.90;;;2.30;;
14760;SDS011;7472;45.396;5.272;2023-03-23T02:17:42;4.13;;;2.70;;
14760;SDS011;7472;45.396;5.272;2023-03-23T02:20:30;4.40;;;2.58;;
14760;SDS011;7472;45.396;5.272;2023-03-23T02:23:14;4.60;;;3.10;;
14760;SDS011;7472;45.396;5.272;2023-03-23T02:25:53;4.15;;;2.40;;
14760;SDS011;7472;45.396;5.272;2023-03-23T02:28:28;5.93;;;2.85;;
14760;SDS011;7472;45.396;5.272;2023-03-23T02:33:48;7.20;;;2.65;;
14760;SDS011;7472;45.396;5.272;2023-03-23T02:36:19;3.10;;;2.80;;
14760;SDS011;7472;45.396;5.272;2023-03-23T02:38:53;6.35;;;2.67;;
14760;SDS011;7472;45.396;5.272;2023-03-23T02:41:22;3.95;;;2.53;;
14760;SDS011;7472;45.396;5.272;2023-03-23T02:43:51;4.03;;;2.60;;
14760;SDS011;7472;45.396;5.272;2023-03-23T02:46:19;4.38;;;2.72;;
14760;SDS011;7472;45.396;5.272;2023-03-23T02:48:49;4.15;;;3.05;;
14760;SDS011;7472;45.396;5.272;2023-03-23T02:51:18;4.35;;;2.70;;
14760;SDS011;7472;45.396;5.272;2023-03-23T02:53:46;4.65;;;2.50;;
14760;SDS011;7472;45.396;5.272;2023-03-23T02:56:14;4.15;;;2.90;;
14760;SDS011;7472;45.396;5.272;2023-03-23T02:58:42;5.65;;;3.30;;
14760;SDS011;7472;45.396;5.272;2023-03-23T03:03:59;4.22;;;2.72;;
14760;SDS011;7472;45.396;5.272;2023-03-23T03:06:30;3.00;;;2.72;;
14760;SDS011;7472;45.396;5.272;2023-03-23T03:09:00;2.97;;;2.35;;
14760;SDS011;7472;45.396;5.272;2023-03-23T03:11:31;5.13;;;3.00;;
14760;SDS011;7472;45.396;5.272;2023-03-23T03:14:01;5.05;;;2.70;;
14760;SDS011;7472;45.396;5.272;2023-03-23T03:16:31;5.03;;;2.95;;
14760;SDS011;7472;45.396;5.272;2023-03-23T03:19:03;5.63;;;2.67;;
14760;SDS011;7472;45.396;5.272;2023-03-23T03:21:33;4.75;;;2.38;;
14760;SDS011;7472;45.396;5.272;2023-03-23T03:24:02;4.00;;;2.60;;
14760;SDS011;7472;45.396;5.272;2023-03-23T03:26:33;5.15;;;3.05;;
14760;SDS011;7472;45.396;5.272;2023-03-23T03:29:01;5.13;;;2.72;;
14760;SDS011;7472;45.396;5.272;2023-03-23T03:31:29;2.38;;;2.17;;
14760;SDS011;7472;45.396;5.272;2023-03-23T03:33:58;4.82;;;2.40;;
14760;SDS011;7472;45.396;5.272;2023-03-23T03:36:28;2.65;;;2.28;;
14760;SDS011;7472;45.396;5.272;2023-03-23T03:38:59;6.13;;;2.42;;
14760;SDS011;7472;45.396;5.272;2023-03-23T03:41:28;3.70;;;2.22;;
14760;SDS011;7472;45.396;5.272;2023-03-23T03:43:56;3.13;;;2.83;;
14760;SDS011;7472;45.396;5.272;2023-03-23T03:46:23;2.85;;;2.40;;
14760;SDS011;7472;45.396;5.272;2023-03-23T03:48:54;3.58;;;2.67;;
14760;SDS011;7472;45.396;5.272;2023-03-23T03:51:22;4.20;;;2.70;;
14760;SDS011;7472;45.396;5.272;2023-03-23T03:53:51;4.72;;;2.42;;
14760;SDS011;7472;45.396;5.272;2023-03-23T03:56:19;3.13;;;2.83;;
14760;SDS011;7472;45.396;5.272;2023-03-23T03:58:47;3.25;;;2.47;;
14760;SDS011;7472;45.396;5.272;2023-03-23T04:01:15;2.95;;;2.53;;
14760;SDS011;7472;45.396;5.272;2023-03-23T04:03:43;3.53;;;2.40;;
14760;SDS011;7472;45.396;5.272;2023-03-23T04:06:10;2.85;;;2.60;;
14760;SDS011;7472;45.396;5.272;2023-03-23T04:08:38;2.75;;;2.20;;
14760;SDS011;7472;45.396;5.272;2023-03-23T04:11:08;3.72;;;1.95;;
14760;SDS011;7472;45.396;5.272;2023-03-23T04:13:35;6.22;;;2.67;;
14760;SDS011;7472;45.396;5.272;2023-03-23T04:16:02;2.33;;;1.95;;
14760;SDS011;7472;45.396;5.272;2023-03-23T04:18:30;3.88;;;2.30;;
14760;SDS011;7472;45.396;5.272;2023-03-23T04:20:59;3.00;;;2.53;;
14760;SDS011;7472;45.396;5.272;2023-03-23T04:23:27;3.05;;;2.20;;
14760;SDS011;7472;45.396;5.272;2023-03-23T04:25:56;3.53;;;2.47;;
14760;SDS011;7472;45.396;5.272;2023-03-23T04:28:25;2.40;;;2.10;;
14760;SDS011;7472;45.396;5.272;2023-03-23T04:30:53;3.63;;;2.42;;
14760;SDS011;7472;45.396;5.272;2023-03-23T04:33:21;4.22;;;2.55;;
14760;SDS011;7472;45.396;5.272;2023-03-23T04:35:50;2.92;;;2.25;;
14760;SDS011;7472;45.396;5.272;2023-03-23T04:38:18;5.38;;;2.45;;
14760;SDS011;7472;45.396;5.272;2023-03-23T04:40:46;4.47;;;2.70;;
14760;SDS011;7472;45.396;5.272;2023-03-23T04:43:16;4.97;;;2.75;;
14760;SDS011;7472;45.396;5.272;2023-03-23T04:45:51;3.15;;;2.78;;
14760;SDS011;7472;45.396;5.272;2023-03-23T04:48:21;2.80;;;2.50;;
14760;SDS011;7472;45.396;5.272;2023-03-23T04:50:49;5.93;;;3.08;;
14760;SDS011;7472;45.396;5.272;2023-03-23T04:53:17;3.35;;;2.75;;
14760;SDS011;7472;45.396;5.272;2023-03-23T04:55:45;4.88;;;2.95;;
14760;SDS011;7472;45.396;5.272;2023-03-23T04:58:14;3.28;;;2.47;;
14760;SDS011;7472;45.396;5.272;2023-03-23T05:00:42;6.22;;;2.92;;
14760;SDS011;7472;45.396;5.272;2023-03-23T05:03:16;3.70;;;2.72;;
14760;SDS011;7472;45.396;5.272;2023-03-23T05:05:43;3.65;;;2.80;;
14760;SDS011;7472;45.396;5.272;2023-03-23T05:08:17;3.22;;;2.72;;
14760;SDS011;7472;45.396;5.272;2023-03-23T05:10:49;7.15;;;3.17;;
14760;SDS011;7472;45.396;5.272;2023-03-23T05:13:18;5.00;;;3.00;;
14760;SDS011;7472;45.396;5.272;2023-03-23T05:15:45;4.32;;;2.67;;
14760;SDS011;7472;45.396;5.272;2023-03-23T05:18:13;4.85;;;3.63;;
14760;SDS011;7472;45.396;5.272;2023-03-23T05:20:42;4.28;;;3.20;;
14760;SDS011;7472;45.396;5.272;2023-03-23T05:23:11;4.32;;;2.50;;
14760;SDS011;7472;45.396;5.272;2023-03-23T05:25:39;5.03;;;2.85;;
14760;SDS011;7472;45.396;5.272;2023-03-23T05:28:07;3.33;;;3.03;;
14760;SDS011;7472;45.396;5.272;2023-03-23T05:30:36;5.65;;;2.80;;
14760;SDS011;7472;45.396;5.272;2023-03-23T05:33:04;4.03;;;2.85;;
14760;SDS011;7472;45.396;5.272;2023-03-23T05:35:31;4.22;;;2.42;;
14760;SDS011;7472;45.396;5.272;2023-03-23T05:38:00;5.85;;;3.28;;
14760;SDS011;7472;45.396;5.272;2023-03-23T05:40:28;4.72;;;2.83;;
14760;SDS011;7472;45.396;5.272;2023-03-23T05:42:56;3.78;;;2.63;;
14760;SDS011;7472;45.396;5.272;2023-03-23T05:45:24;4.20;;;3.08;;
14760;SDS011;7472;45.396;5.272;2023-03-23T05:47:52;4.72;;;2.92;;
14760;SDS011;7472;45.396;5.272;2023-03-23T05:50:19;3.65;;;3.33;;
14760;SDS011;7472;45.396;5.272;2023-03-23T05:52:47;2.90;;;2.40;;
14760;SDS011;7472;45.396;5.272;2023-03-23T05:55:17;3.15;;;2.80;;
14760;SDS011;7472;45.396;5.272;2023-03-23T05:57:44;4.18;;;3.08;;
14760;SDS011;7472;45.396;5.272;2023-03-23T06:00:12;5.20;;;3.58;;
14760;SDS011;7472;45.396;5.272;2023-03-23T06:02:41;6.60;;;2.90;;
14760;SDS011;7472;45.396;5.272;2023-03-23T06:05:09;5.53;;;3.80;;
14760;SDS011;7472;45.396;5.272;2023-03-23T06:07:36;4.22;;;3.33;;
14760;SDS011;7472;45.396;5.272;2023-03-23T06:10:04;3.70;;;2.97;;
14760;SDS011;7472;45.396;5.272;2023-03-23T06:12:33;3.72;;;3.25;;
14760;SDS011;7472;45.396;5.272;2023-03-23T06:15:01;3.50;;;3.00;;
14760;SDS011;7472;45.396;5.272;2023-03-23T06:17:29;3.83;;;3.42;;
14760;SDS011;7472;45.396;5.272;2023-03-23T06:19:56;3.15;;;2.50;;
14760;SDS011;7472;45.396;5.272;2023-03-23T06:22:24;6.75;;;3.55;;
14760;SDS011;7472;45.396;5.272;2023-03-23T06:24:51;5.72;;;3.33;;
14760;SDS011;7472;45.396;5.272;2023-03-23T06:27:22;6.40;;;3.50;;
14760;SDS011;7472;45.396;5.272;2023-03-23T06:29:50;5.63;;;3.25;;
14760;SDS011;7472;45.396;5.272;2023-03-23T06:32:18;5.85;;;3.38;;
14760;SDS011;7472;45.396;5.272;2023-03-23T06:34:46;3.90;;;3.08;;
14760;SDS011;7472;45.396;5.272;2023-03-23T06:37:13;5.75;;;3.70;;
14760;SDS011;7472;45.396;5.272;2023-03-23T06:39:41;4.20;;;2.83;;
14760;SDS011;7472;45.396;5.272;2023-03-23T06:42:09;3.83;;;3.03;;
14760;SDS011;7472;45.396;5.272;2023-03-23T06:44:37;6.53;;;3.42;;
14760;SDS011;7472;45.396;5.272;2023-03-23T06:47:06;5.35;;;2.80;;
14760;SDS011;7472;45.396;5.272;2023-03-23T06:49:34;3.75;;;3.22;;
14760;SDS011;7472;45.396;5.272;2023-03-23T06:52:01;4.68;;;3.47;;
14760;SDS011;7472;45.396;5.272;2023-03-23T06:54:29;4.55;;;3.33;;
14760;SDS011;7472;45.396;5.272;2023-03-23T06:56:56;5.93;;;3.40;;
14760;SDS011;7472;45.396;5.272;2023-03-23T06:59:24;5.75;;;3.47;;
14760;SDS011;7472;45.396;5.272;2023-03-23T07:01:51;4.35;;;3.80;;
14760;SDS011;7472;45.396;5.272;2023-03-23T07:04:20;5.30;;;3.75;;
14760;SDS011;7472;45.396;5.272;2023-03-23T07:06:48;5.55;;;3.90;;
14760;SDS011;7472;45.396;5.272;2023-03-23T07:09:16;5.38;;;4.30;;
14760;SDS011;7472;45.396;5.272;2023-03-23T07:11:43;4.78;;;3.90;;
14760;SDS011;7472;45.396;5.272;2023-03-23T07:14:12;4.47;;;4.07;;
14760;SDS011;7472;45.396;5.272;2023-03-23T07:16:40;5.45;;;4.47;;
14760;SDS011;7472;45.396;5.272;2023-03-23T07:19:07;5.15;;;4.10;;
14760;SDS011;7472;45.396;5.272;2023-03-23T07:21:36;5.25;;;4.35;;
14760;SDS011;7472;45.396;5.272;2023-03-23T07:24:04;5.43;;;4.32;;
14760;SDS011;7472;45.396;5.272;2023-03-23T07:26:31;6.53;;;4.30;;
14760;SDS011;7472;45.396;5.272;2023-03-23T07:28:59;5.75;;;4.63;;
14760;SDS011;7472;45.396;5.272;2023-03-23T07:31:26;5.75;;;5.25;;
14760;SDS011;7472;45.396;5.272;2023-03-23T07:33:53;8.63;;;4.50;;
14760;SDS011;7472;45.396;5.272;2023-03-23T07:36:21;6.47;;;4.85;;
14760;SDS011;7472;45.396;5.272;2023-03-23T07:38:50;5.00;;;4.50;;
14760;SDS011;7472;45.396;5.272;2023-03-23T07:41:17;7.72;;;5.13;;
14760;SDS011;7472;45.396;5.272;2023-03-23T07:43:44;7.53;;;4.90;;
14760;SDS011;7472;45.396;5.272;2023-03-23T07:46:12;6.85;;;4.78;;
14760;SDS011;7472;45.396;5.272;2023-03-23T07:48:39;7.30;;;5.32;;
14760;SDS011;7472;45.396;5.272;2023-03-23T07:51:07;6.38;;;4.88;;
14760;SDS011;7472;45.396;5.272;2023-03-23T07:53:35;5.80;;;4.93;;
14760;SDS011;7472;45.396;5.272;2023-03-23T07:56:04;6.07;;;4.97;;
14760;SDS011;7472;45.396;5.272;2023-03-23T07:58:32;6.85;;;4.88;;
14760;SDS011;7472;45.396;5.272;2023-03-23T08:01:00;6.00;;;4.85;;
14760;SDS011;7472;45.396;5.272;2023-03-23T08:03:28;6.97;;;5.07;;
14760;SDS011;7472;45.396;5.272;2023-03-23T08:05:57;7.45;;;5.38;;
14760;SDS011;7472;45.396;5.272;2023-03-23T08:08:25;8.13;;;5.72;;
14760;SDS011;7472;45.396;5.272;2023-03-23T08:10:52;7.45;;;4.97;;
14760;SDS011;7472;45.396;5.272;2023-03-23T08:13:21;6.65;;;5.35;;
14760;SDS011;7472;45.396;5.272;2023-03-23T08:15:49;7.75;;;5.53;;
14760;SDS011;7472;45.396;5.272;2023-03-23T08:18:17;9.63;;;6.05;;
14760;SDS011;7472;45.396;5.272;2023-03-23T08:20:44;11.63;;;5.70;;
14760;SDS011;7472;45.396;5.272;2023-03-23T08:23:12;8.15;;;5.55;;
14760;SDS011;7472;45.396;5.272;2023-03-23T08:25:41;6.18;;;5.57;;
14760;SDS011;7472;45.396;5.272;2023-03-23T08:28:09;10.63;;;6.22;;
14760;SDS011;7472;45.396;5.272;2023-03-23T08:30:38;7.90;;;6.68;;
14760;SDS011;7472;45.396;5.272;2023-03-23T08:33:05;7.22;;;6.53;;
14760;SDS011;7472;45.396;5.272;2023-03-23T08:35:35;9.15;;;6.53;;
14760;SDS011;7472;45.396;5.272;2023-03-23T08:38:02;8.65;;;7.18;;
14760;SDS011;7472;45.396;5.272;2023-03-23T08:40:30;7.35;;;6.63;;
14760;SDS011;7472;45.396;5.272;2023-03-23T08:42:58;11.27;;;6.90;;
14760;SDS011;7472;45.396;5.272;2023-03-23T08:45:25;10.48;;;8.00;;
14760;SDS011;7472;45.396;5.272;2023-03-23T08:47:55;12.15;;;8.80;;
14760;SDS011;7472;45.396;5.272;2023-03-23T08:50:25;11.70;;;7.97;;
14760;SDS011;7472;45.396;5.272;2023-03-23T08:52:53;12.48;;;9.27;;
14760;SDS011;7472;45.396;5.272;2023-03-23T08:55:21;14.50;;;10.25;;
14760;SDS011;7472;45.396;5.272;2023-03-23T08:57:49;14.88;;;9.82;;
14760;SDS011;7472;45.396;5.272;2023-03-23T09:00:18;12.45;;;10.40;;
14760;SDS011;7472;45.396;5.272;2023-03-23T09:02:46;14.43;;;11.25;;
14760;SDS011;7472;45.396;5.272;2023-03-23T09:05:16;13.13;;;10.70;;
14760;SDS011;7472;45.396;5.272;2023-03-23T09:07:44;12.55;;;10.40;;
14760;SDS011;7472;45.396;5.272;2023-03-23T09:10:12;14.13;;;11.63;;
14760;SDS011;7472;45.396;5.272;2023-03-23T09:12:40;15.15;;;12.13;;
14760;SDS011;7472;45.396;5.272;2023-03-23T09:15:09;14.98;;;12.45;;
14760;SDS011;7472;45.396;5.272;2023-03-23T09:17:38;16.30;;;13.52;;
14760;SDS011;7472;45.396;5.272;2023-03-23T09:20:07;15.73;;;12.98;;
14760;SDS011;7472;45.396;5.272;2023-03-23T09:22:38;19.35;;;14.02;;
14760;SDS011;7472;45.396;5.272;2023-03-23T09:25:06;17.38;;;14.13;;
14760;SDS011;7472;45.396;5.272;2023-03-23T09:27:34;18.42;;;13.90;;
14760;SDS011;7472;45.396;5.272;2023-03-23T09:30:04;17.70;;;13.27;;
14760;SDS011;7472;45.396;5.272;2023-03-23T09:32:32;13.55;;;12.15;;
14760;SDS011;7472;45.396;5.272;2023-03-23T09:35:00;14.30;;;12.00;;
14760;SDS011;7472;45.396;5.272;2023-03-23T09:37:28;13.88;;;11.52;;
14760;SDS011;7472;45.396;5.272;2023-03-23T09:39:57;13.20;;;10.77;;
14760;SDS011;7472;45.396;5.272;2023-03-23T09:42:30;13.70;;;11.73;;
14760;SDS011;7472;45.396;5.272;2023-03-23T09:45:02;14.02;;;10.52;;
14760;SDS011;7472;45.396;5.272;2023-03-23T09:47:35;16.80;;;11.50;;
14760;SDS011;7472;45.396;5.272;2023-03-23T09:50:07;13.48;;;11.77;;
14760;SDS011;7472;45.396;5.272;2023-03-23T09:52:37;13.20;;;10.40;;
14760;SDS011;7472;45.396;5.272;2023-03-23T09:55:07;15.25;;;11.80;;
14760;SDS011;7472;45.396;5.272;2023-03-23T09:57:37;12.82;;;9.98;;
14760;SDS011;7472;45.396;5.272;2023-03-23T10:00:09;11.65;;;9.57;;
14760;SDS011;7472;45.396;5.272;2023-03-23T10:02:40;14.60;;;9.63;;
14760;SDS011;7472;45.396;5.272;2023-03-23T10:05:20;12.88;;;9.95;;
14760;SDS011;7472;45.396;5.272;2023-03-23T10:07:49;14.65;;;10.68;;
14760;SDS011;7472;45.396;5.272;2023-03-23T10:10:18;11.63;;;10.15;;
14760;SDS011;7472;45.396;5.272;2023-03-23T10:12:48;15.18;;;9.95;;
14760;SDS011;7472;45.396;5.272;2023-03-23T10:15:17;11.95;;;10.77;;
14760;SDS011;7472;45.396;5.272;2023-03-23T10:17:46;13.23;;;10.77;;
14760;SDS011;7472;45.396;5.272;2023-03-23T10:20:20;11.52;;;10.07;;
14760;SDS011;7472;45.396;5.272;2023-03-23T10:22:50;14.45;;;11.23;;
14760;SDS011;7472;45.396;5.272;2023-03-23T10:25:21;11.63;;;10.52;;
14760;SDS011;7472;45.396;5.272;2023-03-23T10:27:50;11.20;;;9.90;;
14760;SDS011;7472;45.396;5.272;2023-03-23T10:30:21;16.38;;;9.55;;
14760;SDS011;7472;45.396;5.272;2023-03-23T10:32:50;12.55;;;9.68;;
14760;SDS011;7472;45.396;5.272;2023-03-23T10:35:20;11.55;;;10.27;;
14760;SDS011;7472;45.396;5.272;2023-03-23T10:37:52;13.80;;;10.40;;
14760;SDS011;7472;45.396;5.272;2023-03-23T10:40:22;12.13;;;10.77;;
14760;SDS011;7472;45.396;5.272;2023-03-23T10:42:50;13.88;;;10.23;;
14760;SDS011;7472;45.396;5.272;2023-03-23T10:45:19;12.75;;;10.13;;
14760;SDS011;7472;45.396;5.272;2023-03-23T10:47:48;11.93;;;9.40;;
14760;SDS011;7472;45.396;5.272;2023-03-23T10:50:17;12.90;;;10.48;;
14760;SDS011;7472;45.396;5.272;2023-03-23T10:52:45;12.82;;;10.48;;
14760;SDS011;7472;45.396;5.272;2023-03-23T10:55:13;12.18;;;10.05;;
14760;SDS011;7472;45.396;5.272;2023-03-23T10:57:43;12.85;;;10.27;;
14760;SDS011;7472;45.396;5.272;2023-03-23T11:00:17;12.27;;;9.68;;
14760;SDS011;7472;45.396;5.272;2023-03-23T11:02:45;15.38;;;11.52;;
14760;SDS011;7472;45.396;5.272;2023-03-23T11:05:16;10.98;;;9.63;;
14760;SDS011;7472;45.396;5.272;2023-03-23T11:07:47;15.30;;;11.48;;
14760;SDS011;7472;45.396;5.272;2023-03-23T11:10:16;10.63;;;9.52;;
14760;SDS011;7472;45.396;5.272;2023-03-23T11:12:46;11.65;;;9.40;;
14760;SDS011;7472;45.396;5.272;2023-03-23T11:15:29;11.68;;;9.15;;
14760;SDS011;7472;45.396;5.272;2023-03-23T11:18:01;10.02;;;9.02;;
14760;SDS011;7472;45.396;5.272;2023-03-23T11:20:29;10.38;;;9.27;;
14760;SDS011;7472;45.396;5.272;2023-03-23T11:22:57;9.40;;;8.30;;
14760;SDS011;7472;45.396;5.272;2023-03-23T11:25:25;9.98;;;8.98;;
14760;SDS011;7472;45.396;5.272;2023-03-23T11:27:54;10.93;;;9.05;;
14760;SDS011;7472;45.396;5.272;2023-03-23T11:30:23;12.52;;;9.52;;
14760;SDS011;7472;45.396;5.272;2023-03-23T11:32:51;11.98;;;9.18;;
14760;SDS011;7472;45.396;5.272;2023-03-23T11:35:19;13.10;;;9.50;;
14760;SDS011;7472;45.396;5.272;2023-03-23T11:37:48;11.75;;;8.93;;
14760;SDS011;7472;45.396;5.272;2023-03-23T11:40:17;13.95;;;11.18;;
14760;SDS011;7472;45.396;5.272;2023-03-23T11:42:46;12.30;;;9.45;;
14760;SDS011;7472;45.396;5.272;2023-03-23T11:45:19;14.65;;;9.80;;
14760;SDS011;7472;45.396;5.272;2023-03-23T11:47:51;10.50;;;9.32;;
14760;SDS011;7472;45.396;5.272;2023-03-23T11:50:21;11.18;;;9.52;;
14760;SDS011;7472;45.396;5.272;2023-03-23T11:52:51;11.85;;;9.05;;
14760;SDS011;7472;45.396;5.272;2023-03-23T11:55:21;10.48;;;9.48;;
14760;SDS011;7472;45.396;5.272;2023-03-23T11:57:49;12.32;;;10.00;;
14760;SDS011;7472;45.396;5.272;2023-03-23T12:00:19;10.60;;;8.88;;
14760;SDS011;7472;45.396;5.272;2023-03-23T12:05:35;15.30;;;9.52;;
14760;SDS011;7472;45.396;5.272;2023-03-23T12:08:08;11.57;;;9.10;;
14760;SDS011;7472;45.396;5.272;2023-03-23T12:10:41;13.60;;;9.98;;
14760;SDS011;7472;45.396;5.272;2023-03-23T12:13:15;11.32;;;9.02;;
14760;SDS011;7472;45.396;5.272;2023-03-23T12:15:48;13.02;;;9.32;;
14760;SDS011;7472;45.396;5.272;2023-03-23T12:18:19;15.27;;;10.05;;
14760;SDS011;7472;45.396;5.272;2023-03-23T12:20:52;12.80;;;9.98;;
14760;SDS011;7472;45.396;5.272;2023-03-23T12:23:23;11.55;;;10.35;;
14760;SDS011;7472;45.396;5.272;2023-03-23T12:26:07;11.45;;;9.60;;
14760;SDS011;7472;45.396;5.272;2023-03-23T12:28:44;11.43;;;10.27;;
14760;SDS011;7472;45.396;5.272;2023-03-23T12:31:22;11.98;;;10.38;;
14760;SDS011;7472;45.396;5.272;2023-03-23T12:33:53;12.13;;;10.93;;
14760;SDS011;7472;45.396;5.272;2023-03-23T12:36:24;13.80;;;11.27;;
14760;SDS011;7472;45.396;5.272;2023-03-23T12:38:58;13.73;;;11.70;;
14760;SDS011;7472;45.396;5.272;2023-03-23T12:41:32;17.05;;;11.80;;
14760;SDS011;7472;45.396;5.272;2023-03-23T12:44:05;14.48;;;11.52;;
14760;SDS011;7472;45.396;5.272;2023-03-23T12:46:54;16.55;;;12.27;;
14760;SDS011;7472;45.396;5.272;2023-03-23T12:49:25;13.98;;;11.50;;
14760;SDS011;7472;45.396;5.272;2023-03-23T12:51:55;11.65;;;10.45;;
14760;SDS011;7472;45.396;5.272;2023-03-23T12:54:28;67.68;;;60.40;;
14760;SDS011;7472;45.396;5.272;2023-03-23T12:56:58;47.67;;;42.97;;
14760;SDS011;7472;45.396;5.272;2023-03-23T12:59:29;60.30;;;55.47;;
14760;SDS011;7472;45.396;5.272;2023-03-23T13:02:03;14.40;;;12.90;;
14760;SDS011;7472;45.396;5.272;2023-03-23T13:04:34;14.45;;;13.07;;
14760;SDS011;7472;45.396;5.272;2023-03-23T13:07:03;12.02;;;10.02;;
14760;SDS011;7472;45.396;5.272;2023-03-23T13:09:35;12.38;;;11.18;;
14760;SDS011;7472;45.396;5.272;2023-03-23T13:12:04;13.40;;;11.05;;
14760;SDS011;7472;45.396;5.272;2023-03-23T13:14:36;11.90;;;10.23;;
14760;SDS011;7472;45.396;5.272;2023-03-23T13:17:09;13.05;;;10.55;;
14760;SDS011;7472;45.396;5.272;2023-03-23T13:19:44;10.35;;;9.15;;
14760;SDS011;7472;45.396;5.272;2023-03-23T13:22:13;13.05;;;11.32;;
14760;SDS011;7472;45.396;5.272;2023-03-23T13:24:46;10.90;;;9.38;;
14760;SDS011;7472;45.396;5.272;2023-03-23T13:27:16;10.25;;;8.98;;
14760;SDS011;7472;45.396;5.272;2023-03-23T13:29:46;10.13;;;8.98;;
14760;SDS011;7472;45.396;5.272;2023-03-23T13:32:16;11.23;;;10.07;;
14760;SDS011;7472;45.396;5.272;2023-03-23T13:34:45;11.68;;;10.50;;
14760;SDS011;7472;45.396;5.272;2023-03-23T13:37:19;11.70;;;9.65;;
14760;SDS011;7472;45.396;5.272;2023-03-23T13:39:49;12.23;;;9.27;;
14760;SDS011;7472;45.396;5.272;2023-03-23T13:42:19;9.65;;;8.73;;
14760;SDS011;7472;45.396;5.272;2023-03-23T13:44:55;11.15;;;9.30;;
14760;SDS011;7472;45.396;5.272;2023-03-23T13:47:27;12.23;;;10.73;;
14760;SDS011;7472;45.396;5.272;2023-03-23T13:49:58;11.95;;;10.73;;
14760;SDS011;7472;45.396;5.272;2023-03-23T13:52:36;14.43;;;11.82;;
14760;SDS011;7472;45.396;5.272;2023-03-23T13:55:08;12.35;;;10.55;;
14760;SDS011;7472;45.396;5.272;2023-03-23T13:57:53;13.05;;;11.70;;
14760;SDS011;7472;45.396;5.272;2023-03-23T14:00:31;14.60;;;12.27;;
14760;SDS011;7472;45.396;5.272;2023-03-23T14:03:02;14.82;;;13.23;;
14760;SDS011;7472;45.396;5.272;2023-03-23T14:05:31;13.98;;;11.80;;
14760;SDS011;7472;45.396;5.272;2023-03-23T14:08:02;13.98;;;12.05;;
14760;SDS011;7472;45.396;5.272;2023-03-23T14:10:31;17.05;;;12.95;;
14760;SDS011;7472;45.396;5.272;2023-03-23T14:13:00;13.10;;;11.80;;
14760;SDS011;7472;45.396;5.272;2023-03-23T14:15:29;13.98;;;11.98;;
14760;SDS011;7472;45.396;5.272;2023-03-23T14:17:57;13.70;;;10.50;;
14760;SDS011;7472;45.396;5.272;2023-03-23T14:20:31;13.95;;;11.20;;
14760;SDS011;7472;45.396;5.272;2023-03-23T14:23:00;11.90;;;10.45;;
14760;SDS011;7472;45.396;5.272;2023-03-23T14:25:29;11.38;;;9.90;;
14760;SDS011;7472;45.396;5.272;2023-03-23T14:27:57;11.80;;;10.52;;
14760;SDS011;7472;45.396;5.272;2023-03-23T14:30:26;10.93;;;9.23;;
14760;SDS011;7472;45.396;5.272;2023-03-23T14:32:54;15.23;;;9.35;;
14760;SDS011;7472;45.396;5.272;2023-03-23T14:35:31;12.50;;;9.15;;
14760;SDS011;7472;45.396;5.272;2023-03-23T14:37:59;12.45;;;7.95;;
14760;SDS011;7472;45.396;5.272;2023-03-23T14:40:27;9.45;;;8.50;;
14760;SDS011;7472;45.396;5.272;2023-03-23T14:42:56;10.15;;;7.72;;
14760;SDS011;7472;45.396;5.272;2023-03-23T14:45:24;10.52;;;7.90;;
14760;SDS011;7472;45.396;5.272;2023-03-23T14:47:54;11.48;;;8.55;;
14760;SDS011;7472;45.396;5.272;2023-03-23T14:50:25;10.63;;;8.15;;
14760;SDS011;7472;45.396;5.272;2023-03-23T14:52:57;11.18;;;6.35;;
14760;SDS011;7472;45.396;5.272;2023-03-23T14:55:25;8.35;;;7.13;;
14760;SDS011;7472;45.396;5.272;2023-03-23T14:57:56;8.45;;;6.95;;
14760;SDS011;7472;45.396;5.272;2023-03-23T15:00:34;7.80;;;6.80;;
14760;SDS011;7472;45.396;5.272;2023-03-23T15:03:03;9.02;;;6.43;;
14760;SDS011;7472;45.396;5.272;2023-03-23T15:05:32;12.52;;;7.43;;
14760;SDS011;7472;45.396;5.272;2023-03-23T15:08:03;11.05;;;7.10;;
14760;SDS011;7472;45.396;5.272;2023-03-23T15:10:31;10.43;;;7.43;;
14760;SDS011;7472;45.396;5.272;2023-03-23T15:13:00;9.95;;;7.75;;
14760;SDS011;7472;45.396;5.272;2023-03-23T15:15:28;9.27;;;8.05;;
14760;SDS011;7472;45.396;5.272;2023-03-23T15:17:56;15.88;;;9.23;;